createdAt,value
2024-05-09T00:01:44.092Z,100.00
2024-05-09T00:04:29.319Z,100.00
2024-05-09T00:07:14.644Z,100.00
2024-05-09T00:10:00.093Z,100.00
2024-05-09T00:12:45.505Z,100.00
2024-05-09T00:15:31.006Z,100.00
2024-05-09T00:18:16.500Z,100.00
2024-05-09T00:21:04.964Z,100.00
2024-05-09T00:23:50.467Z,100.00
2024-05-09T00:26:35.820Z,100.00
2024-05-09T00:29:21.757Z,100.00
2024-05-09T00:32:07.412Z,100.00
2024-05-09T00:34:52.553Z,100.00
2024-05-09T00:37:37.910Z,100.00
2024-05-09T00:40:31.134Z,100.00
2024-05-09T00:43:23.877Z,100.00
2024-05-09T00:46:10.074Z,100.00
2024-05-09T00:48:55.727Z,100.00
2024-05-09T00:51:42.104Z,100.00
2024-05-09T00:54:28.753Z,100.00
2024-05-09T00:57:14.179Z,100.00
2024-05-09T01:00:00.175Z,100.00
2024-05-09T01:02:45.381Z,100.00
2024-05-09T01:05:30.949Z,100.00
2024-05-09T01:08:16.314Z,100.00
2024-05-09T01:11:01.919Z,100.00
2024-05-09T01:13:47.724Z,100.00
2024-05-09T01:16:33.159Z,100.00
2024-05-09T01:19:28.583Z,100.00
2024-05-09T01:22:14.013Z,100.00
2024-05-09T01:24:59.518Z,100.00
2024-05-09T01:27:44.919Z,100.00
2024-05-09T01:30:34.976Z,100.00
2024-05-09T01:33:22.631Z,100.00
2024-05-09T01:36:07.789Z,100.00
2024-05-09T01:38:53.210Z,100.00
2024-05-09T01:41:38.791Z,100.00
2024-05-09T01:44:24.267Z,100.00
2024-05-09T01:47:09.907Z,100.00
2024-05-09T01:49:55.235Z,100.00
2024-05-09T01:52:40.645Z,100.00
2024-05-09T01:55:26.097Z,100.00
2024-05-09T01:58:11.659Z,100.00
2024-05-09T02:00:57.137Z,100.00
2024-05-09T02:03:45.184Z,100.00
2024-05-09T02:06:30.740Z,100.00
2024-05-09T02:09:16.181Z,100.00
2024-05-09T02:12:01.652Z,100.00
2024-05-09T02:14:46.794Z,100.00
2024-05-09T02:17:32.067Z,100.00
2024-05-09T02:20:26.753Z,100.00
2024-05-09T02:23:15.426Z,100.00
2024-05-09T02:26:00.657Z,100.00
2024-05-09T02:28:46.196Z,100.00
2024-05-09T02:31:31.445Z,100.00
2024-05-09T02:34:16.889Z,100.00
2024-05-09T02:37:02.089Z,100.00
2024-05-09T02:39:47.570Z,100.00
2024-05-09T02:42:33.023Z,100.00
2024-05-09T02:45:18.435Z,100.00
2024-05-09T02:48:04.539Z,100.00
2024-05-09T02:50:49.983Z,100.00
2024-05-09T02:53:35.553Z,100.00
2024-05-09T02:56:21.394Z,100.00
2024-05-09T02:59:06.775Z,100.00
2024-05-09T03:01:52.138Z,100.00
2024-05-09T03:04:38.790Z,100.00
2024-05-09T03:07:23.998Z,100.00
2024-05-09T03:10:18.233Z,100.00
2024-05-09T03:13:07.552Z,100.00
2024-05-09T03:15:52.689Z,100.00
2024-05-09T03:18:38.748Z,100.00
2024-05-09T03:21:24.236Z,100.00
2024-05-09T03:24:11.096Z,100.00
2024-05-09T03:26:56.568Z,100.00
2024-05-09T03:29:42.165Z,100.00
2024-05-09T03:32:27.778Z,100.00
2024-05-09T03:35:13.393Z,100.00
2024-05-09T03:37:58.729Z,100.00
2024-05-09T03:40:49.934Z,100.00
2024-05-09T03:43:35.756Z,100.00
2024-05-09T03:46:21.133Z,100.00
2024-05-09T03:49:06.483Z,100.00
2024-05-09T03:51:51.849Z,100.00
2024-05-09T03:54:44.945Z,100.00
2024-05-09T03:57:29.959Z,100.00
2024-05-09T04:00:22.083Z,100.00
2024-05-09T04:03:13.202Z,100.00
2024-05-09T04:05:58.927Z,100.00
2024-05-09T04:08:44.383Z,100.00
2024-05-09T04:11:29.711Z,100.00
2024-05-09T04:14:15.135Z,100.00
2024-05-09T04:17:00.484Z,100.00
2024-05-09T04:19:46.088Z,100.00
2024-05-09T04:22:31.418Z,100.00
2024-05-09T04:25:16.897Z,100.00
2024-05-09T04:28:02.643Z,100.00
2024-05-09T04:30:47.823Z,100.00
2024-05-09T04:33:33.394Z,100.00
2024-05-09T04:36:18.667Z,100.00
2024-05-09T04:39:04.281Z,100.00
2024-05-09T04:41:49.777Z,100.00
2024-05-09T04:44:34.944Z,100.00
2024-05-09T04:47:21.092Z,100.00
2024-05-09T04:50:11.388Z,100.00
2024-05-09T04:52:56.728Z,100.00
2024-05-09T04:55:42.140Z,100.00
2024-05-09T04:58:27.453Z,100.00
2024-05-09T05:01:12.816Z,100.00
2024-05-09T05:03:58.920Z,100.00
2024-05-09T05:06:44.230Z,100.00
2024-05-09T05:09:29.842Z,100.00
2024-05-09T05:12:15.534Z,100.00
2024-05-09T05:15:00.976Z,100.00
2024-05-09T05:17:46.705Z,100.00
2024-05-09T05:20:33.826Z,100.00
2024-05-09T05:23:21.183Z,100.00
2024-05-09T05:26:06.772Z,100.00
2024-05-09T05:28:52.122Z,100.00
2024-05-09T05:31:37.595Z,100.00
2024-05-09T05:34:22.850Z,100.00
2024-05-09T05:37:08.458Z,100.00
2024-05-09T05:39:53.890Z,100.00
2024-05-09T05:42:39.277Z,100.00
2024-05-09T05:45:24.513Z,99.80
2024-05-09T05:48:10.121Z,98.38
2024-05-09T05:50:55.271Z,96.69
2024-05-09T05:53:40.548Z,94.90
2024-05-09T05:56:26.396Z,93.92
2024-05-09T05:59:14.069Z,91.60
2024-05-09T06:02:00.497Z,90.93
2024-05-09T06:04:46.132Z,89.49
2024-05-09T06:07:31.560Z,87.92
2024-05-09T06:10:21.520Z,88.37
2024-05-09T06:13:13.124Z,87.64
2024-05-09T06:15:58.860Z,87.06
2024-05-09T06:18:44.431Z,86.47
2024-05-09T06:21:29.761Z,86.29
2024-05-09T06:24:15.173Z,84.97
2024-05-09T06:27:00.469Z,84.30
2024-05-09T06:29:45.733Z,83.89
2024-05-09T06:32:31.538Z,82.77
2024-05-09T06:35:16.752Z,82.07
2024-05-09T06:38:02.265Z,82.24
2024-05-09T06:40:47.923Z,82.17
2024-05-09T06:43:33.477Z,81.62
2024-05-09T06:46:19.032Z,81.01
2024-05-09T06:49:04.647Z,80.50
2024-05-09T06:51:50.255Z,80.06
2024-05-09T06:54:35.552Z,79.58
2024-05-09T06:57:20.968Z,79.23
2024-05-09T07:00:10.302Z,78.99
2024-05-09T07:03:00.120Z,79.17
2024-05-09T07:05:48.345Z,76.98
2024-05-09T07:08:34.768Z,75.58
2024-05-09T07:11:20.236Z,75.06
2024-05-09T07:14:06.586Z,74.51
2024-05-09T07:16:51.622Z,74.85
2024-05-09T07:19:37.278Z,74.97
2024-05-09T07:22:22.696Z,75.31
2024-05-09T07:25:08.208Z,75.26
2024-05-09T07:27:53.588Z,75.09
2024-05-09T07:30:39.157Z,74.14
2024-05-09T07:33:25.037Z,72.97
2024-05-09T07:36:10.555Z,72.23
2024-05-09T07:38:56.039Z,71.84
2024-05-09T07:41:41.446Z,72.13
2024-05-09T07:44:27.043Z,71.42
2024-05-09T07:48:27.669Z,71.25
2024-05-09T07:53:36.357Z,72.54
2024-05-09T07:56:12.161Z,71.35
2024-05-09T07:58:57.766Z,72.65
2024-05-09T08:01:43.390Z,70.60
2024-05-09T08:04:28.730Z,68.97
2024-05-09T08:07:14.036Z,67.97
2024-05-09T08:09:59.526Z,66.38
2024-05-09T08:12:44.992Z,65.17
2024-05-09T08:15:30.666Z,67.18
2024-05-09T08:18:16.316Z,65.11
2024-05-09T08:21:01.638Z,64.46
2024-05-09T08:23:47.024Z,65.99
2024-05-09T08:26:32.495Z,66.77
2024-05-09T08:29:17.785Z,66.20
2024-05-09T08:32:03.616Z,65.95
2024-05-09T08:34:48.968Z,66.20
2024-05-09T08:37:38.735Z,65.68
2024-05-09T08:40:33.303Z,63.93
2024-05-09T08:43:24.008Z,62.60
2024-05-09T08:46:11.164Z,61.54
2024-05-09T08:48:57.337Z,60.23
2024-05-09T08:51:43.435Z,56.69
2024-05-09T08:54:30.323Z,55.06
2024-05-09T08:57:16.184Z,56.71
2024-05-09T09:00:07.910Z,58.38
2024-05-09T09:02:56.030Z,57.67
2024-05-09T09:05:46.206Z,55.77
2024-05-09T09:08:31.884Z,57.50
2024-05-09T09:11:16.970Z,57.80
2024-05-09T09:14:02.282Z,57.75
2024-05-09T09:16:47.709Z,57.46
2024-05-09T09:19:32.994Z,57.70
2024-05-09T09:22:18.405Z,55.14
2024-05-09T09:25:03.981Z,55.85
2024-05-09T09:27:49.433Z,53.24
2024-05-09T09:30:37.790Z,53.34
2024-05-09T09:33:23.895Z,50.54
2024-05-09T09:36:11.551Z,50.63
2024-05-09T09:38:57.624Z,50.78
2024-05-09T09:41:45.189Z,49.20
2024-05-09T09:44:34.171Z,49.85
2024-05-09T09:47:20.620Z,51.22
2024-05-09T09:50:12.056Z,53.52
2024-05-09T09:53:00.774Z,52.23
2024-05-09T09:55:46.359Z,49.85
2024-05-09T09:58:32.766Z,48.92
2024-05-09T10:01:18.000Z,48.67
2024-05-09T10:04:03.732Z,48.84
2024-05-09T10:06:52.140Z,48.51
2024-05-09T10:09:37.122Z,48.60
2024-05-09T10:12:22.697Z,50.18
2024-05-09T10:15:08.433Z,50.90
2024-05-09T10:17:53.556Z,51.19
2024-05-09T10:20:43.100Z,49.02
2024-05-09T10:23:30.506Z,48.74
2024-05-09T10:26:15.629Z,46.63
2024-05-09T10:29:21.597Z,45.02
2024-05-09T10:32:08.495Z,46.27
2024-05-09T10:35:11.693Z,45.71
2024-05-09T10:38:03.136Z,48.08
2024-05-09T10:40:56.471Z,47.45
2024-05-09T10:43:42.106Z,46.49
2024-05-09T10:46:27.547Z,45.50
2024-05-09T10:49:16.787Z,45.88
2024-05-09T10:52:03.780Z,47.04
2024-05-09T10:54:50.002Z,46.85
2024-05-09T10:57:38.823Z,47.39
2024-05-09T11:00:35.646Z,46.72
2024-05-09T11:03:23.410Z,46.32
2024-05-09T11:06:11.133Z,46.67
2024-05-09T11:08:56.696Z,44.96
2024-05-09T11:11:42.021Z,45.61
2024-05-09T11:14:27.335Z,45.80
2024-05-09T11:17:12.783Z,46.04
2024-05-09T11:19:58.207Z,44.66
2024-05-09T11:22:43.610Z,47.74
2024-05-09T11:25:29.218Z,48.40
2024-05-09T11:28:14.789Z,46.86
2024-05-09T11:31:08.239Z,46.93
2024-05-09T11:33:54.520Z,48.64
2024-05-09T11:36:40.321Z,45.96
2024-05-09T11:39:26.182Z,47.64
2024-05-09T11:42:11.955Z,44.62
2024-05-09T11:44:57.270Z,42.80
2024-05-09T11:47:42.932Z,43.31
2024-05-09T11:50:33.046Z,43.71
2024-05-09T11:53:21.353Z,46.03
2024-05-09T11:56:06.881Z,45.16
2024-05-09T11:58:52.328Z,42.82
2024-05-09T12:01:37.945Z,43.46
2024-05-09T12:04:23.730Z,42.74
2024-05-09T12:07:12.754Z,44.77
2024-05-09T12:09:58.174Z,45.61
2024-05-09T12:12:43.720Z,46.00
2024-05-09T12:15:29.454Z,46.52
2024-05-09T12:18:14.638Z,43.76
2024-05-09T12:21:00.835Z,45.01
2024-05-09T12:23:46.324Z,45.35
2024-05-09T12:26:31.581Z,46.52
2024-05-09T12:29:17.807Z,44.34
2024-05-09T12:32:03.317Z,44.90
2024-05-09T12:34:48.691Z,44.84
2024-05-09T12:37:34.151Z,44.12
2024-05-09T12:40:26.788Z,42.44
2024-05-09T12:43:20.179Z,44.32
2024-05-09T12:46:05.441Z,41.97
2024-05-09T12:48:51.115Z,42.10
2024-05-09T12:51:36.370Z,40.39
2024-05-09T12:54:21.759Z,40.06
2024-05-09T12:57:07.287Z,39.21
2024-05-09T12:59:52.698Z,39.03
2024-05-09T13:02:38.240Z,40.63
2024-05-09T13:05:23.439Z,40.89
2024-05-09T13:08:09.473Z,42.35
2024-05-09T13:10:54.967Z,43.75
2024-05-09T13:13:40.241Z,43.55
2024-05-09T13:16:25.872Z,43.90
2024-05-09T13:19:11.199Z,44.12
2024-05-09T13:21:56.615Z,43.81
2024-05-09T13:24:42.297Z,41.46
2024-05-09T13:27:27.611Z,41.48
2024-05-09T13:30:21.730Z,41.82
2024-05-09T13:33:14.671Z,42.77
2024-05-09T13:36:00.159Z,43.46
2024-05-09T13:38:45.654Z,43.07
2024-05-09T13:41:30.980Z,44.21
2024-05-09T13:44:16.274Z,44.27
2024-05-09T13:47:01.779Z,44.09
2024-05-09T13:49:47.982Z,42.23
2024-05-09T13:52:33.249Z,42.04
2024-05-09T13:55:18.516Z,44.09
2024-05-09T13:58:04.493Z,44.94
2024-05-09T14:00:49.855Z,44.05
2024-05-09T14:03:35.326Z,43.63
2024-05-09T14:06:20.634Z,47.95
2024-05-09T14:09:06.127Z,45.08
2024-05-09T14:11:51.633Z,44.66
2024-05-09T14:14:37.014Z,44.73
2024-05-09T14:17:22.747Z,45.41
2024-05-09T14:20:11.754Z,44.44
2024-05-09T14:23:00.529Z,46.65
2024-05-09T14:25:50.073Z,46.62
2024-05-09T14:28:37.387Z,45.59
2024-05-09T14:31:22.957Z,45.15
2024-05-09T14:34:08.344Z,44.77
2024-05-09T14:36:54.099Z,44.62
2024-05-09T14:39:39.518Z,44.12
2024-05-09T14:42:25.048Z,44.20
2024-05-09T14:45:10.488Z,43.78
2024-05-09T14:47:56.037Z,45.36
2024-05-09T14:50:41.901Z,45.80
2024-05-09T14:53:27.202Z,44.35
2024-05-09T14:56:12.649Z,44.85
2024-05-09T14:58:58.093Z,44.08
2024-05-09T15:01:43.632Z,44.29
2024-05-09T15:04:29.134Z,44.85
2024-05-09T15:07:14.693Z,44.62
2024-05-09T15:10:00.226Z,44.30
2024-05-09T15:12:45.670Z,44.88
2024-05-09T15:15:31.385Z,43.92
2024-05-09T15:18:17.605Z,45.56
2024-05-09T15:21:02.917Z,46.69
2024-05-09T15:23:48.421Z,46.08
2024-05-09T15:26:33.852Z,45.71
2024-05-09T15:29:19.336Z,45.74
2024-05-09T15:32:05.414Z,45.80
2024-05-09T15:34:50.510Z,44.37
2024-05-09T15:37:36.910Z,43.66
2024-05-09T15:40:31.278Z,44.48
2024-05-09T15:43:23.193Z,44.58
2024-05-09T15:46:08.940Z,44.82
2024-05-09T15:48:54.354Z,45.19
2024-05-09T15:51:39.697Z,44.57
2024-05-09T15:54:25.569Z,43.32
2024-05-09T15:57:11.938Z,46.18
2024-05-09T15:59:57.047Z,45.56
2024-05-09T16:02:42.492Z,44.65
2024-05-09T16:05:28.359Z,45.20
2024-05-09T16:08:14.470Z,44.13
2024-05-09T16:11:00.089Z,45.42
2024-05-09T16:13:46.069Z,45.95
2024-05-09T16:16:31.864Z,45.60
2024-05-09T16:19:17.731Z,46.73
2024-05-09T16:22:03.450Z,44.79
2024-05-09T16:24:48.932Z,45.13
2024-05-09T16:27:34.692Z,46.56
2024-05-09T16:30:27.857Z,45.19
2024-05-09T16:33:19.992Z,45.55
2024-05-09T16:36:06.617Z,46.98
2024-05-09T16:38:52.005Z,48.75
2024-05-09T16:41:37.590Z,46.56
2024-05-09T16:44:22.977Z,46.16
2024-05-09T16:47:08.483Z,47.83
2024-05-09T16:49:53.820Z,47.72
2024-05-09T16:52:39.162Z,50.02
2024-05-09T16:55:24.613Z,51.32
2024-05-09T16:58:10.070Z,51.51
2024-05-09T17:00:55.551Z,47.81
2024-05-09T17:03:41.063Z,50.08
2024-05-09T17:06:26.754Z,51.15
2024-05-09T17:09:15.500Z,49.95
2024-05-09T17:12:00.791Z,48.40
2024-05-09T17:14:46.120Z,48.75
2024-05-09T17:17:31.408Z,50.10
2024-05-09T17:20:26.127Z,50.96
2024-05-09T17:23:17.860Z,50.25
2024-05-09T17:26:03.475Z,49.90
2024-05-09T17:28:48.817Z,50.36
2024-05-09T17:31:34.431Z,51.57
2024-05-09T17:34:19.886Z,52.98
2024-05-09T17:37:05.330Z,55.48
2024-05-09T17:39:50.636Z,57.27
2024-05-09T17:42:36.131Z,56.93
2024-05-09T17:45:21.595Z,55.87
2024-05-09T17:48:07.777Z,57.46
2024-05-09T17:50:53.104Z,59.49
2024-05-09T17:53:38.385Z,57.61
2024-05-09T17:56:23.834Z,58.02
2024-05-09T17:59:11.464Z,57.09
2024-05-09T18:01:57.200Z,58.09
2024-05-09T18:04:42.813Z,58.98
2024-05-09T18:07:28.101Z,58.16
2024-05-09T18:10:19.529Z,59.73
2024-05-09T18:13:12.207Z,59.73
2024-05-09T18:15:58.225Z,58.98
2024-05-09T18:18:43.708Z,61.03
2024-05-09T18:21:28.863Z,60.15
2024-05-09T18:24:14.514Z,62.19
2024-05-09T18:26:59.982Z,62.51
2024-05-09T18:29:45.459Z,61.96
2024-05-09T18:32:30.990Z,59.32
2024-05-09T18:35:16.301Z,58.64
2024-05-09T18:38:02.183Z,58.88
2024-05-09T18:40:49.228Z,58.40
2024-05-09T18:43:41.976Z,58.40
2024-05-09T18:46:30.352Z,57.55
2024-05-09T18:49:15.904Z,57.42
2024-05-09T18:52:01.627Z,57.80
2024-05-09T18:54:47.154Z,57.33
2024-05-09T18:57:32.646Z,57.73
2024-05-09T19:00:30.907Z,58.57
2024-05-09T19:03:20.752Z,58.27
2024-05-09T19:06:06.099Z,57.97
2024-05-09T19:08:51.184Z,58.58
2024-05-09T19:11:36.878Z,58.73
2024-05-09T19:14:22.122Z,59.86
2024-05-09T19:17:07.704Z,59.07
2024-05-09T19:19:53.107Z,59.18
2024-05-09T19:22:38.433Z,59.54
2024-05-09T19:25:24.074Z,60.69
2024-05-09T19:28:09.521Z,60.06
2024-05-09T19:30:54.943Z,60.70
2024-05-09T19:33:40.304Z,60.65
2024-05-09T19:36:25.712Z,60.77
2024-05-09T19:39:11.183Z,60.45
2024-05-09T19:41:56.601Z,60.89
2024-05-09T19:44:42.124Z,61.00
2024-05-09T19:47:27.634Z,61.52
2024-05-09T19:50:19.540Z,61.79
2024-05-09T19:53:08.859Z,62.31
2024-05-09T19:55:54.145Z,62.56
2024-05-09T19:58:39.588Z,62.83
2024-05-09T20:01:25.076Z,62.37
2024-05-09T20:04:10.395Z,62.84
2024-05-09T20:06:55.746Z,63.72
2024-05-09T20:09:41.239Z,64.13
2024-05-09T20:12:26.432Z,65.84
2024-05-09T20:15:12.102Z,65.19
2024-05-09T20:17:57.561Z,64.34
2024-05-09T20:20:44.962Z,67.88
2024-05-09T20:23:30.556Z,68.66
2024-05-09T20:26:15.688Z,68.81
2024-05-09T20:29:01.581Z,70.07
2024-05-09T20:31:46.983Z,71.33
2024-05-09T20:34:32.341Z,71.12
2024-05-09T20:37:17.986Z,72.20
2024-05-09T20:40:05.067Z,74.48
2024-05-09T20:42:52.467Z,75.30
2024-05-09T20:45:38.120Z,76.05
2024-05-09T20:48:23.829Z,78.11
2024-05-09T20:51:09.788Z,78.82
2024-05-09T20:53:55.000Z,78.34
2024-05-09T20:56:40.320Z,77.69
2024-05-09T20:59:25.797Z,78.62
2024-05-09T21:02:11.339Z,81.36
2024-05-09T21:04:56.841Z,82.51
2024-05-09T21:07:42.242Z,82.66
2024-05-09T21:10:32.113Z,82.86
2024-05-09T21:13:18.776Z,84.09
2024-05-09T21:16:05.147Z,82.61
2024-05-09T21:18:50.364Z,82.28
2024-05-09T21:21:40.164Z,84.18
2024-05-09T21:24:25.216Z,85.66
2024-05-09T21:27:10.413Z,86.32
2024-05-09T21:29:55.886Z,87.83
2024-05-09T21:32:41.361Z,89.29
2024-05-09T21:35:26.903Z,90.40
2024-05-09T21:38:13.078Z,91.10
2024-05-09T21:40:58.700Z,90.94
2024-05-09T21:43:43.955Z,90.32
2024-05-09T21:46:29.571Z,90.78
2024-05-09T21:49:14.760Z,92.15
2024-05-09T21:52:00.018Z,91.77
2024-05-09T21:54:46.449Z,91.34
2024-05-09T21:57:31.625Z,90.72
2024-05-09T22:00:28.375Z,90.24
2024-05-09T22:03:20.647Z,91.01
2024-05-09T22:06:06.063Z,90.26
2024-05-09T22:08:51.432Z,89.97
2024-05-09T22:11:36.935Z,90.19
2024-05-09T22:14:22.291Z,90.77
2024-05-09T22:17:07.812Z,92.17
2024-05-09T22:19:53.275Z,93.63
2024-05-09T22:22:38.688Z,94.82
2024-05-09T22:25:26.071Z,94.13
2024-05-09T22:28:14.845Z,94.55
2024-05-09T22:31:00.186Z,95.65
2024-05-09T22:33:48.154Z,96.26
2024-05-09T22:36:33.882Z,96.98
2024-05-09T22:39:19.166Z,97.37
2024-05-09T22:42:04.701Z,96.81
2024-05-09T22:44:49.884Z,95.53
2024-05-09T22:47:35.561Z,95.40
2024-05-09T22:50:26.755Z,96.00
2024-05-09T22:53:16.206Z,95.46
2024-05-09T22:56:01.595Z,95.87
2024-05-09T22:58:46.978Z,96.21
2024-05-09T23:01:32.224Z,97.19
2024-05-09T23:04:17.959Z,97.13
2024-05-09T23:07:03.565Z,97.24
2024-05-09T23:09:48.959Z,97.49
2024-05-09T23:12:34.476Z,97.05
2024-05-09T23:15:20.053Z,97.85
2024-05-09T23:18:06.093Z,98.24
2024-05-09T23:20:51.444Z,98.53
2024-05-09T23:23:36.759Z,99.35
2024-05-09T23:26:22.232Z,100.00
2024-05-09T23:29:07.715Z,100.00
2024-05-09T23:31:53.112Z,100.00
2024-05-09T23:34:38.474Z,100.00
2024-05-09T23:37:23.528Z,100.00
2024-05-09T23:40:09.782Z,100.00
2024-05-09T23:42:55.217Z,100.00
2024-05-09T23:45:41.338Z,100.00
2024-05-09T23:48:26.754Z,100.00
2024-05-09T23:51:11.712Z,100.00
2024-05-09T23:53:57.153Z,100.00
2024-05-09T23:56:42.559Z,100.00
2024-05-09T23:59:28.043Z,100.00
